sensor_id;sensor_type;location;lat;lon;timestamp;pressure;altitude;pressure_sealevel;temperature;humidity
43741;BME280;29352;48.708;9.290;2022-07-04T00:02:11;97933.81;;;15.00;46.50
43741;BME280;29352;48.708;9.290;2022-07-04T00:04:36;97932.75;;;14.65;47.59
43741;BME280;29352;48.708;9.290;2022-07-04T00:07:02;97920.16;;;15.00;46.71
43741;BME280;29352;48.708;9.290;2022-07-04T00:09:27;97915.31;;;14.16;48.14
43741;BME280;29352;48.708;9.290;2022-07-04T00:11:53;97917.09;;;14.21;47.88
43741;BME280;29352;48.708;9.290;2022-07-04T00:14:18;97911.69;;;13.79;48.66
43741;BME280;29352;48.708;9.290;2022-07-04T00:16:44;97913.03;;;13.35;49.34
43741;BME280;29352;48.708;9.290;2022-07-04T00:19:09;97908.69;;;13.81;47.78
43741;BME280;29352;48.708;9.290;2022-07-04T00:21:35;97908.19;;;14.29;46.65
43741;BME280;29352;48.708;9.290;2022-07-04T00:24:00;97916.44;;;14.74;45.79
43741;BME280;29352;48.708;9.290;2022-07-04T00:26:26;97907.75;;;13.85;46.66
43741;BME280;29352;48.708;9.290;2022-07-04T00:28:54;97892.63;;;13.79;46.22
43741;BME280;29352;48.708;9.290;2022-07-04T00:31:19;97884.72;;;13.36;47.11
43741;BME280;29352;48.708;9.290;2022-07-04T00:33:45;97903.44;;;13.84;46.20
43741;BME280;29352;48.708;9.290;2022-07-04T00:36:10;97901.28;;;14.45;45.16
43741;BME280;29352;48.708;9.290;2022-07-04T00:38:36;97897.38;;;14.38;45.16
43741;BME280;29352;48.708;9.290;2022-07-04T00:41:02;97905.78;;;14.64;44.98
43741;BME280;29352;48.708;9.290;2022-07-04T00:43:28;97905.94;;;14.45;44.90
43741;BME280;29352;48.708;9.290;2022-07-04T00:45:54;97904.13;;;14.54;44.77
43741;BME280;29352;48.708;9.290;2022-07-04T00:48:20;97906.41;;;14.24;44.54
43741;BME280;29352;48.708;9.290;2022-07-04T00:50:47;97921.03;;;14.87;43.94
43741;BME280;29352;48.708;9.290;2022-07-04T00:53:14;97921.06;;;14.15;44.39
43741;BME280;29352;48.708;9.290;2022-07-04T00:55:40;97916.03;;;14.44;44.34
43741;BME280;29352;48.708;9.290;2022-07-04T00:58:07;97928.13;;;15.11;42.98
43741;BME280;29352;48.708;9.290;2022-07-04T01:00:34;97923.47;;;14.66;43.94
43741;BME280;29352;48.708;9.290;2022-07-04T01:02:59;97922.22;;;15.48;43.00
43741;BME280;29352;48.708;9.290;2022-07-04T01:05:25;97923.00;;;14.50;44.37
43741;BME280;29352;48.708;9.290;2022-07-04T01:07:50;97922.38;;;14.98;43.71
43741;BME280;29352;48.708;9.290;2022-07-04T01:10:16;97917.22;;;14.88;43.40
43741;BME280;29352;48.708;9.290;2022-07-04T01:12:41;97913.16;;;14.27;44.61
43741;BME280;29352;48.708;9.290;2022-07-04T01:15:08;97918.63;;;13.99;45.54
43741;BME280;29352;48.708;9.290;2022-07-04T01:17:34;97910.84;;;14.20;45.57
43741;BME280;29352;48.708;9.290;2022-07-04T01:20:01;97920.94;;;13.04;47.18
43741;BME280;29352;48.708;9.290;2022-07-04T01:22:27;97920.88;;;13.09;46.45
43741;BME280;29352;48.708;9.290;2022-07-04T01:24:55;97921.47;;;13.06;46.13
43741;BME280;29352;48.708;9.290;2022-07-04T01:27:21;97928.19;;;13.42;44.78
43741;BME280;29352;48.708;9.290;2022-07-04T01:29:46;97918.03;;;13.89;44.45
43741;BME280;29352;48.708;9.290;2022-07-04T01:32:12;97925.81;;;14.45;43.62
43741;BME280;29352;48.708;9.290;2022-07-04T01:34:38;97925.72;;;13.73;44.29
43741;BME280;29352;48.708;9.290;2022-07-04T01:37:04;97931.88;;;13.92;43.69
43741;BME280;29352;48.708;9.290;2022-07-04T01:39:30;97927.22;;;14.20;43.61
43741;BME280;29352;48.708;9.290;2022-07-04T01:41:55;97923.41;;;14.58;43.22
43741;BME280;29352;48.708;9.290;2022-07-04T01:44:21;97926.56;;;14.51;43.59
43741;BME280;29352;48.708;9.290;2022-07-04T01:46:47;97923.53;;;15.20;42.22
43741;BME280;29352;48.708;9.290;2022-07-04T01:49:13;97934.44;;;14.97;43.06
43741;BME280;29352;48.708;9.290;2022-07-04T01:51:50;97940.00;;;14.70;43.60
43741;BME280;29352;48.708;9.290;2022-07-04T01:54:16;97937.47;;;14.37;43.22
43741;BME280;29352;48.708;9.290;2022-07-04T01:56:41;97942.88;;;14.01;44.12
43741;BME280;29352;48.708;9.290;2022-07-04T01:59:08;97940.63;;;14.67;42.97
43741;BME280;29352;48.708;9.290;2022-07-04T02:01:34;97947.44;;;14.55;43.81
43741;BME280;29352;48.708;9.290;2022-07-04T02:04:03;97949.03;;;13.79;44.23
43741;BME280;29352;48.708;9.290;2022-07-04T02:06:30;97953.88;;;13.35;45.06
43741;BME280;29352;48.708;9.290;2022-07-04T02:08:57;97954.47;;;13.93;44.76
43741;BME280;29352;48.708;9.290;2022-07-04T02:11:42;97961.13;;;13.73;44.24
43741;BME280;29352;48.708;9.290;2022-07-04T02:14:29;97967.78;;;14.22;44.13
43741;BME280;29352;48.708;9.290;2022-07-04T02:16:55;97963.06;;;14.64;43.35
43741;BME280;29352;48.708;9.290;2022-07-04T02:19:21;97978.00;;;14.16;43.52
43741;BME280;29352;48.708;9.290;2022-07-04T02:21:46;97968.28;;;14.51;43.05
43741;BME280;29352;48.708;9.290;2022-07-04T02:24:12;97968.47;;;14.41;43.49
43741;BME280;29352;48.708;9.290;2022-07-04T02:26:37;97973.13;;;13.58;44.73
43741;BME280;29352;48.708;9.290;2022-07-04T02:29:03;97974.53;;;14.88;43.26
43741;BME280;29352;48.708;9.290;2022-07-04T02:31:28;97981.16;;;14.60;43.31
43741;BME280;29352;48.708;9.290;2022-07-04T02:33:54;97971.81;;;14.38;43.53
43741;BME280;29352;48.708;9.290;2022-07-04T02:36:19;97989.56;;;13.94;44.26
43741;BME280;29352;48.708;9.290;2022-07-04T02:38:44;97984.25;;;14.17;43.61
43741;BME280;29352;48.708;9.290;2022-07-04T02:41:10;97994.63;;;14.28;43.50
43741;BME280;29352;48.708;9.290;2022-07-04T02:43:35;97994.94;;;14.41;42.79
43741;BME280;29352;48.708;9.290;2022-07-04T02:46:00;97993.97;;;14.73;43.11
43741;BME280;29352;48.708;9.290;2022-07-04T02:48:26;97994.63;;;14.92;43.52
43741;BME280;29352;48.708;9.290;2022-07-04T02:50:51;98002.41;;;13.80;44.09
43741;BME280;29352;48.708;9.290;2022-07-04T02:53:17;98005.72;;;13.91;44.53
43741;BME280;29352;48.708;9.290;2022-07-04T02:55:42;97991.69;;;14.52;44.43
43741;BME280;29352;48.708;9.290;2022-07-04T02:58:07;98004.50;;;13.69;44.79
43741;BME280;29352;48.708;9.290;2022-07-04T03:00:33;98009.88;;;13.88;44.70
43741;BME280;29352;48.708;9.290;2022-07-04T03:02:58;98008.94;;;13.65;45.08
43741;BME280;29352;48.708;9.290;2022-07-04T03:05:24;98005.09;;;13.01;45.50
43741;BME280;29352;48.708;9.290;2022-07-04T03:07:49;98004.72;;;13.07;45.09
43741;BME280;29352;48.708;9.290;2022-07-04T03:10:15;98018.78;;;14.07;44.85
43741;BME280;29352;48.708;9.290;2022-07-04T03:12:40;98016.53;;;13.82;44.42
43741;BME280;29352;48.708;9.290;2022-07-04T03:15:06;98018.91;;;14.16;43.95
43741;BME280;29352;48.708;9.290;2022-07-04T03:17:31;98020.47;;;14.45;44.29
43741;BME280;29352;48.708;9.290;2022-07-04T03:19:57;98019.75;;;13.98;44.56
43741;BME280;29352;48.708;9.290;2022-07-04T03:22:23;98022.41;;;13.24;45.79
43741;BME280;29352;48.708;9.290;2022-07-04T03:24:49;98022.09;;;14.04;44.81
43741;BME280;29352;48.708;9.290;2022-07-04T03:27:14;98030.03;;;13.87;44.27
43741;BME280;29352;48.708;9.290;2022-07-04T03:29:40;98027.81;;;13.29;45.27
43741;BME280;29352;48.708;9.290;2022-07-04T03:32:06;98029.00;;;14.02;44.19
43741;BME280;29352;48.708;9.290;2022-07-04T03:34:32;98040.00;;;13.50;45.13
43741;BME280;29352;48.708;9.290;2022-07-04T03:36:57;98041.09;;;14.10;44.38
43741;BME280;29352;48.708;9.290;2022-07-04T03:39:23;98037.41;;;13.73;45.14
43741;BME280;29352;48.708;9.290;2022-07-04T03:41:49;98030.00;;;13.08;45.69
43741;BME280;29352;48.708;9.290;2022-07-04T03:44:14;98026.19;;;12.71;46.74
43741;BME280;29352;48.708;9.290;2022-07-04T03:46:40;98027.13;;;12.61;46.94
43741;BME280;29352;48.708;9.290;2022-07-04T03:49:05;98039.19;;;12.93;46.56
43741;BME280;29352;48.708;9.290;2022-07-04T03:51:31;98036.50;;;13.91;45.09
43741;BME280;29352;48.708;9.290;2022-07-04T03:53:57;98030.78;;;13.46;45.52
43741;BME280;29352;48.708;9.290;2022-07-04T03:56:22;98034.91;;;13.44;45.91
43741;BME280;29352;48.708;9.290;2022-07-04T03:58:48;98044.72;;;12.88;45.54
43741;BME280;29352;48.708;9.290;2022-07-04T04:01:17;98050.31;;;12.78;45.29
43741;BME280;29352;48.708;9.290;2022-07-04T04:03:44;98046.88;;;13.10;44.69
43741;BME280;29352;48.708;9.290;2022-07-04T04:06:30;98051.03;;;13.40;46.11
43741;BME280;29352;48.708;9.290;2022-07-04T04:08:56;98047.34;;;13.50;45.98
43741;BME280;29352;48.708;9.290;2022-07-04T04:11:22;98052.88;;;12.69;46.10
43741;BME280;29352;48.708;9.290;2022-07-04T04:13:48;98054.81;;;13.39;45.81
43741;BME280;29352;48.708;9.290;2022-07-04T04:16:13;98066.50;;;12.88;45.55
43741;BME280;29352;48.708;9.290;2022-07-04T04:18:39;98065.50;;;12.36;46.38
43741;BME280;29352;48.708;9.290;2022-07-04T04:21:05;98075.19;;;12.66;45.67
43741;BME280;29352;48.708;9.290;2022-07-04T04:23:30;98077.84;;;12.95;44.97
43741;BME280;29352;48.708;9.290;2022-07-04T04:25:56;98079.19;;;13.49;45.35
43741;BME280;29352;48.708;9.290;2022-07-04T04:28:22;98082.00;;;13.77;44.62
43741;BME280;29352;48.708;9.290;2022-07-04T04:30:49;98082.97;;;13.53;44.52
43741;BME280;29352;48.708;9.290;2022-07-04T04:33:15;98089.00;;;13.50;44.76
43741;BME280;29352;48.708;9.290;2022-07-04T04:35:40;98093.84;;;13.53;44.66
43741;BME280;29352;48.708;9.290;2022-07-04T04:38:06;98081.38;;;13.66;45.32
43741;BME280;29352;48.708;9.290;2022-07-04T04:40:31;98096.41;;;13.64;44.69
43741;BME280;29352;48.708;9.290;2022-07-04T04:42:56;98109.50;;;13.43;44.71
43741;BME280;29352;48.708;9.290;2022-07-04T04:45:22;98105.72;;;14.09;44.47
43741;BME280;29352;48.708;9.290;2022-07-04T04:47:47;98099.81;;;13.88;44.34
43741;BME280;29352;48.708;9.290;2022-07-04T04:50:13;98099.38;;;13.81;44.40
43741;BME280;29352;48.708;9.290;2022-07-04T04:52:42;98102.91;;;14.69;43.64
43741;BME280;29352;48.708;9.290;2022-07-04T04:55:08;98096.03;;;15.22;43.17
43741;BME280;29352;48.708;9.290;2022-07-04T04:57:35;98108.94;;;14.80;43.13
43741;BME280;29352;48.708;9.290;2022-07-04T05:00:00;98120.06;;;14.42;43.68
43741;BME280;29352;48.708;9.290;2022-07-04T05:02:26;98122.69;;;14.89;44.13
43741;BME280;29352;48.708;9.290;2022-07-04T05:04:53;98128.78;;;14.72;43.92
43741;BME280;29352;48.708;9.290;2022-07-04T05:07:19;98126.81;;;14.86;44.10
43741;BME280;29352;48.708;9.290;2022-07-04T05:09:44;98123.50;;;15.25;43.70
43741;BME280;29352;48.708;9.290;2022-07-04T05:12:10;98127.03;;;15.04;43.85
43741;BME280;29352;48.708;9.290;2022-07-04T05:14:36;98126.19;;;15.17;43.99
43741;BME280;29352;48.708;9.290;2022-07-04T05:17:02;98120.06;;;14.70;43.99
43741;BME280;29352;48.708;9.290;2022-07-04T05:19:28;98118.44;;;14.27;43.78
43741;BME280;29352;48.708;9.290;2022-07-04T05:21:54;98119.19;;;14.61;43.60
43741;BME280;29352;48.708;9.290;2022-07-04T05:24:20;98117.53;;;14.46;44.25
43741;BME280;29352;48.708;9.290;2022-07-04T05:26:45;98106.63;;;14.18;44.60
43741;BME280;29352;48.708;9.290;2022-07-04T05:29:11;98107.75;;;14.59;44.71
43741;BME280;29352;48.708;9.290;2022-07-04T05:31:36;98110.69;;;14.76;44.70
43741;BME280;29352;48.708;9.290;2022-07-04T05:34:02;98111.00;;;14.74;44.18
43741;BME280;29352;48.708;9.290;2022-07-04T05:36:27;98120.66;;;14.25;43.83
43741;BME280;29352;48.708;9.290;2022-07-04T05:38:53;98110.06;;;14.79;43.72
43741;BME280;29352;48.708;9.290;2022-07-04T05:41:18;98114.41;;;14.25;44.54
43741;BME280;29352;48.708;9.290;2022-07-04T05:43:44;98112.97;;;14.96;43.43
43741;BME280;29352;48.708;9.290;2022-07-04T05:46:09;98105.47;;;15.61;42.54
43741;BME280;29352;48.708;9.290;2022-07-04T05:48:35;98102.47;;;15.93;42.80
43741;BME280;29352;48.708;9.290;2022-07-04T05:51:02;98107.09;;;16.15;42.46
43741;BME280;29352;48.708;9.290;2022-07-04T05:53:28;98104.47;;;16.41;42.13
43741;BME280;29352;48.708;9.290;2022-07-04T05:55:54;98100.22;;;16.75;41.82
43741;BME280;29352;48.708;9.290;2022-07-04T05:58:19;98091.94;;;17.32;40.01
43741;BME280;29352;48.708;9.290;2022-07-04T06:00:45;98091.28;;;17.01;41.50
43741;BME280;29352;48.708;9.290;2022-07-04T06:03:10;98088.69;;;17.39;40.93
43741;BME280;29352;48.708;9.290;2022-07-04T06:05:36;98087.81;;;17.99;39.75
43741;BME280;29352;48.708;9.290;2022-07-04T06:08:01;98094.50;;;17.55;40.10
43741;BME280;29352;48.708;9.290;2022-07-04T06:10:27;98095.28;;;18.28;39.25
43741;BME280;29352;48.708;9.290;2022-07-04T06:12:53;98092.41;;;16.34;41.21
43741;BME280;29352;48.708;9.290;2022-07-04T06:15:19;98098.72;;;17.44;40.17
43741;BME280;29352;48.708;9.290;2022-07-04T06:17:44;98092.25;;;17.05;40.55
43741;BME280;29352;48.708;9.290;2022-07-04T06:20:11;98094.19;;;17.39;40.25
43741;BME280;29352;48.708;9.290;2022-07-04T06:25:11;98100.94;;;17.76;39.70
43741;BME280;29352;48.708;9.290;2022-07-04T06:27:42;98098.81;;;17.91;39.40
43741;BME280;29352;48.708;9.290;2022-07-04T06:30:10;98109.00;;;17.29;40.35
43741;BME280;29352;48.708;9.290;2022-07-04T06:32:56;98107.25;;;17.25;39.77
43741;BME280;29352;48.708;9.290;2022-07-04T06:35:27;98106.44;;;18.23;38.24
43741;BME280;29352;48.708;9.290;2022-07-04T06:38:23;98116.41;;;18.96;37.87
43741;BME280;29352;48.708;9.290;2022-07-04T06:40:57;98122.81;;;18.49;39.01
43741;BME280;29352;48.708;9.290;2022-07-04T06:43:24;98120.41;;;18.01;38.69
43741;BME280;29352;48.708;9.290;2022-07-04T06:45:50;98115.59;;;18.66;38.25
43741;BME280;29352;48.708;9.290;2022-07-04T06:48:17;98122.28;;;18.56;38.89
43741;BME280;29352;48.708;9.290;2022-07-04T06:50:43;98118.09;;;18.88;37.89
43741;BME280;29352;48.708;9.290;2022-07-04T06:53:10;98120.72;;;18.76;38.29
43741;BME280;29352;48.708;9.290;2022-07-04T06:55:40;98104.69;;;19.70;37.24
43741;BME280;29352;48.708;9.290;2022-07-04T06:58:08;98104.97;;;19.15;38.11
43741;BME280;29352;48.708;9.290;2022-07-04T07:00:35;98103.81;;;19.91;37.25
43741;BME280;29352;48.708;9.290;2022-07-04T07:03:03;98102.94;;;19.45;37.72
43741;BME280;29352;48.708;9.290;2022-07-04T07:05:30;98104.69;;;18.87;38.40
43741;BME280;29352;48.708;9.290;2022-07-04T07:07:56;98100.63;;;18.25;39.41
43741;BME280;29352;48.708;9.290;2022-07-04T07:10:21;98090.84;;;18.45;38.49
43741;BME280;29352;48.708;9.290;2022-07-04T07:12:47;98084.81;;;17.40;40.22
43741;BME280;29352;48.708;9.290;2022-07-04T07:15:13;98086.38;;;18.40;39.74
43741;BME280;29352;48.708;9.290;2022-07-04T07:17:40;98098.69;;;18.25;39.87
43741;BME280;29352;48.708;9.290;2022-07-04T07:20:06;98092.28;;;18.51;39.30
43741;BME280;29352;48.708;9.290;2022-07-04T07:22:32;98083.09;;;20.18;37.40
43741;BME280;29352;48.708;9.290;2022-07-04T07:24:58;98094.28;;;19.55;37.51
43741;BME280;29352;48.708;9.290;2022-07-04T07:27:23;98075.50;;;20.03;36.87
43741;BME280;29352;48.708;9.290;2022-07-04T07:29:49;98080.03;;;19.41;36.51
43741;BME280;29352;48.708;9.290;2022-07-04T07:32:14;98075.00;;;19.76;36.27
43741;BME280;29352;48.708;9.290;2022-07-04T07:34:40;98089.69;;;19.59;36.44
43741;BME280;29352;48.708;9.290;2022-07-04T07:37:06;98087.13;;;19.42;36.76
43741;BME280;29352;48.708;9.290;2022-07-04T07:39:32;98069.22;;;20.02;36.79
43741;BME280;29352;48.708;9.290;2022-07-04T07:41:57;98075.41;;;18.40;38.42
43741;BME280;29352;48.708;9.290;2022-07-04T07:44:23;98073.06;;;19.22;37.15
43741;BME280;29352;48.708;9.290;2022-07-04T07:46:48;98079.38;;;18.72;38.25
43741;BME280;29352;48.708;9.290;2022-07-04T07:49:13;98066.34;;;19.53;37.88
43741;BME280;29352;48.708;9.290;2022-07-04T07:51:39;98059.31;;;19.43;37.21
43741;BME280;29352;48.708;9.290;2022-07-04T07:54:04;98073.03;;;18.60;38.48
43741;BME280;29352;48.708;9.290;2022-07-04T07:56:30;98074.50;;;18.57;38.82
43741;BME280;29352;48.708;9.290;2022-07-04T07:58:55;98072.00;;;19.36;37.90
43741;BME280;29352;48.708;9.290;2022-07-04T08:01:21;98069.63;;;19.46;37.79
43741;BME280;29352;48.708;9.290;2022-07-04T08:03:46;98064.75;;;19.10;37.51
43741;BME280;29352;48.708;9.290;2022-07-04T08:06:32;98073.06;;;18.81;38.66
43741;BME280;29352;48.708;9.290;2022-07-04T08:08:58;98070.06;;;19.36;38.14
43741;BME280;29352;48.708;9.290;2022-07-04T08:11:24;98069.00;;;19.08;38.03
43741;BME280;29352;48.708;9.290;2022-07-04T08:13:50;98069.03;;;20.20;37.62
43741;BME280;29352;48.708;9.290;2022-07-04T08:16:16;98069.84;;;19.41;37.35
43741;BME280;29352;48.708;9.290;2022-07-04T08:18:41;98060.03;;;19.53;38.04
43741;BME280;29352;48.708;9.290;2022-07-04T08:21:07;98050.22;;;19.64;38.07
43741;BME280;29352;48.708;9.290;2022-07-04T08:23:33;98050.06;;;18.94;38.29
43741;BME280;29352;48.708;9.290;2022-07-04T08:26:00;98045.41;;;19.07;38.25
43741;BME280;29352;48.708;9.290;2022-07-04T08:28:27;98048.06;;;18.52;39.69
43741;BME280;29352;48.708;9.290;2022-07-04T08:30:54;98046.00;;;18.70;39.19
43741;BME280;29352;48.708;9.290;2022-07-04T08:33:20;98052.22;;;18.20;39.53
43741;BME280;29352;48.708;9.290;2022-07-04T08:35:46;98045.06;;;18.37;39.54
43741;BME280;29352;48.708;9.290;2022-07-04T08:38:11;98058.03;;;18.87;38.94
43741;BME280;29352;48.708;9.290;2022-07-04T08:40:37;98061.44;;;18.54;39.26
43741;BME280;29352;48.708;9.290;2022-07-04T08:43:03;98060.97;;;17.67;40.68
43741;BME280;29352;48.708;9.290;2022-07-04T08:45:33;98061.84;;;18.35;39.54
43741;BME280;29352;48.708;9.290;2022-07-04T08:48:07;98057.13;;;18.06;39.77
43741;BME280;29352;48.708;9.290;2022-07-04T08:50:44;98053.31;;;17.98;39.39
43741;BME280;29352;48.708;9.290;2022-07-04T08:53:21;98058.94;;;18.40;39.43
43741;BME280;29352;48.708;9.290;2022-07-04T08:55:51;98069.09;;;18.31;39.43
43741;BME280;29352;48.708;9.290;2022-07-04T08:58:38;98072.41;;;19.05;37.57
43741;BME280;29352;48.708;9.290;2022-07-04T09:01:07;98063.69;;;18.82;38.93
43741;BME280;29352;48.708;9.290;2022-07-04T09:03:36;98069.09;;;18.69;39.25
43741;BME280;29352;48.708;9.290;2022-07-04T09:06:02;98064.41;;;19.66;38.11
43741;BME280;29352;48.708;9.290;2022-07-04T09:08:28;98081.50;;;19.17;38.07
43741;BME280;29352;48.708;9.290;2022-07-04T09:10:54;98074.19;;;19.76;37.94
43741;BME280;29352;48.708;9.290;2022-07-04T09:13:19;98077.72;;;20.34;36.83
43741;BME280;29352;48.708;9.290;2022-07-04T09:15:49;98079.19;;;20.80;36.70
43741;BME280;29352;48.708;9.290;2022-07-04T09:20:59;98075.19;;;20.78;36.72
43741;BME280;29352;48.708;9.290;2022-07-04T09:23:30;98078.56;;;21.11;36.68
43741;BME280;29352;48.708;9.290;2022-07-04T09:26:18;98074.03;;;20.91;36.07
43741;BME280;29352;48.708;9.290;2022-07-04T09:28:53;98067.53;;;21.68;36.54
43741;BME280;29352;48.708;9.290;2022-07-04T09:31:27;98077.97;;;23.24;34.93
43741;BME280;29352;48.708;9.290;2022-07-04T09:33:59;98077.53;;;22.04;36.18
43741;BME280;29352;48.708;9.290;2022-07-04T09:36:29;98076.59;;;22.98;34.37
43741;BME280;29352;48.708;9.290;2022-07-04T09:42:09;98084.44;;;22.77;34.43
43741;BME280;29352;48.708;9.290;2022-07-04T09:44:46;98077.06;;;23.82;34.09
43741;BME280;29352;48.708;9.290;2022-07-04T09:47:21;98079.78;;;24.47;32.69
43741;BME280;29352;48.708;9.290;2022-07-04T09:50:05;98085.66;;;24.69;34.46
43741;BME280;29352;48.708;9.290;2022-07-04T09:52:47;98079.25;;;25.21;33.94
43741;BME280;29352;48.708;9.290;2022-07-04T09:55:36;98085.72;;;25.02;33.16
43741;BME280;29352;48.708;9.290;2022-07-04T10:00:30;98082.66;;;25.82;32.37
43741;BME280;29352;48.708;9.290;2022-07-04T10:03:24;98082.75;;;26.34;31.39
43741;BME280;29352;48.708;9.290;2022-07-04T10:06:06;98082.09;;;26.55;31.02
43741;BME280;29352;48.708;9.290;2022-07-04T10:08:35;98086.88;;;25.65;33.04
43741;BME280;29352;48.708;9.290;2022-07-04T10:11:03;98076.06;;;25.90;31.74
43741;BME280;29352;48.708;9.290;2022-07-04T10:13:30;98086.59;;;25.40;32.07
43741;BME280;29352;48.708;9.290;2022-07-04T10:15:57;98082.13;;;25.66;31.68
43741;BME280;29352;48.708;9.290;2022-07-04T10:18:24;98078.63;;;24.48;33.05
43741;BME280;29352;48.708;9.290;2022-07-04T10:20:52;98079.63;;;24.90;32.56
43741;BME280;29352;48.708;9.290;2022-07-04T10:23:20;98078.31;;;24.80;32.48
43741;BME280;29352;48.708;9.290;2022-07-04T10:25:52;98090.09;;;24.50;32.50
43741;BME280;29352;48.708;9.290;2022-07-04T10:28:19;98087.13;;;24.13;32.85
43741;BME280;29352;48.708;9.290;2022-07-04T10:30:49;98082.63;;;24.28;32.18
43741;BME280;29352;48.708;9.290;2022-07-04T10:33:22;98087.97;;;25.57;32.14
43741;BME280;29352;48.708;9.290;2022-07-04T10:35:57;98091.50;;;25.54;31.37
43741;BME280;29352;48.708;9.290;2022-07-04T10:38:27;98080.72;;;24.85;32.84
43741;BME280;29352;48.708;9.290;2022-07-04T10:40:57;98082.47;;;24.17;33.37
43741;BME280;29352;48.708;9.290;2022-07-04T10:56:52;98064.66;;;25.65;31.68
43741;BME280;29352;48.708;9.290;2022-07-04T10:59:29;98066.41;;;25.81;31.20
43741;BME280;29352;48.708;9.290;2022-07-04T11:07:15;98069.72;;;25.93;31.86
43741;BME280;29352;48.708;9.290;2022-07-04T11:09:42;98058.88;;;25.81;31.91
43741;BME280;29352;48.708;9.290;2022-07-04T11:12:08;98060.06;;;25.09;32.27
43741;BME280;29352;48.708;9.290;2022-07-04T11:14:46;98057.59;;;25.71;31.21
43741;BME280;29352;48.708;9.290;2022-07-04T11:17:26;98054.53;;;24.79;31.58
43741;BME280;29352;48.708;9.290;2022-07-04T11:20:03;98055.72;;;25.83;31.40
43741;BME280;29352;48.708;9.290;2022-07-04T11:22:30;98049.88;;;24.87;31.25
43741;BME280;29352;48.708;9.290;2022-07-04T11:24:56;98045.84;;;24.80;32.95
43741;BME280;29352;48.708;9.290;2022-07-04T11:27:22;98046.94;;;24.46;33.83
43741;BME280;29352;48.708;9.290;2022-07-04T11:29:55;98038.13;;;25.30;32.27
43741;BME280;29352;48.708;9.290;2022-07-04T11:32:30;98039.06;;;24.51;33.01
43741;BME280;29352;48.708;9.290;2022-07-04T11:34:58;98031.84;;;25.34;31.26
43741;BME280;29352;48.708;9.290;2022-07-04T11:37:23;98028.25;;;25.70;31.31
43741;BME280;29352;48.708;9.290;2022-07-04T11:39:53;98026.91;;;25.94;31.73
43741;BME280;29352;48.708;9.290;2022-07-04T11:42:38;98016.31;;;25.63;31.19
43741;BME280;29352;48.708;9.290;2022-07-04T11:45:23;98031.69;;;25.19;31.92
43741;BME280;29352;48.708;9.290;2022-07-04T11:47:49;98023.34;;;26.49;30.60
43741;BME280;29352;48.708;9.290;2022-07-04T11:50:16;98022.50;;;26.41;30.13
43741;BME280;29352;48.708;9.290;2022-07-04T11:52:47;98018.69;;;26.64;29.85
43741;BME280;29352;48.708;9.290;2022-07-04T11:55:17;98015.13;;;24.96;31.65
43741;BME280;29352;48.708;9.290;2022-07-04T11:57:47;98004.53;;;24.42;31.76
43741;BME280;29352;48.708;9.290;2022-07-04T12:00:20;98004.19;;;25.44;30.62
43741;BME280;29352;48.708;9.290;2022-07-04T12:02:48;98000.00;;;24.56;30.90
43741;BME280;29352;48.708;9.290;2022-07-04T12:05:16;98000.16;;;26.23;31.13
43741;BME280;29352;48.708;9.290;2022-07-04T12:07:45;97995.28;;;25.62;31.87
43741;BME280;29352;48.708;9.290;2022-07-04T12:10:15;97987.81;;;24.08;33.78
43741;BME280;29352;48.708;9.290;2022-07-04T12:12:56;97992.28;;;24.69;32.73
43741;BME280;29352;48.708;9.290;2022-07-04T12:15:29;97990.94;;;24.90;31.51
43741;BME280;29352;48.708;9.290;2022-07-04T12:18:02;97988.19;;;24.63;33.30
43741;BME280;29352;48.708;9.290;2022-07-04T12:20:29;97986.22;;;24.33;32.77
43741;BME280;29352;48.708;9.290;2022-07-04T12:23:00;97979.47;;;24.91;31.51
43741;BME280;29352;48.708;9.290;2022-07-04T12:25:35;97981.31;;;24.50;31.49
43741;BME280;29352;48.708;9.290;2022-07-04T12:28:09;97973.22;;;23.42;32.50
43741;BME280;29352;48.708;9.290;2022-07-04T12:30:38;97973.81;;;22.19;33.41
43741;BME280;29352;48.708;9.290;2022-07-04T12:33:12;97963.69;;;23.85;32.34
43741;BME280;29352;48.708;9.290;2022-07-04T12:41:03;97957.78;;;24.10;34.05
43741;BME280;29352;48.708;9.290;2022-07-04T12:49:01;97949.66;;;24.51;33.11
43741;BME280;29352;48.708;9.290;2022-07-04T12:51:33;97940.19;;;24.25;33.42
43741;BME280;29352;48.708;9.290;2022-07-04T12:54:07;97935.94;;;24.61;32.09
43741;BME280;29352;48.708;9.290;2022-07-04T12:59:12;97922.22;;;24.38;32.23
43741;BME280;29352;48.708;9.290;2022-07-04T13:01:41;97923.97;;;24.54;32.96
43741;BME280;29352;48.708;9.290;2022-07-04T13:04:08;97919.81;;;25.04;32.80
43741;BME280;29352;48.708;9.290;2022-07-04T13:06:34;97919.00;;;24.36;33.63
43741;BME280;29352;48.708;9.290;2022-07-04T13:09:03;97909.75;;;23.99;34.21
43741;BME280;29352;48.708;9.290;2022-07-04T13:11:30;97913.75;;;24.01;34.68
43741;BME280;29352;48.708;9.290;2022-07-04T13:14:14;97906.81;;;23.88;32.77
43741;BME280;29352;48.708;9.290;2022-07-04T13:16:39;97916.88;;;24.26;32.62
43741;BME280;29352;48.708;9.290;2022-07-04T13:19:04;97910.84;;;24.17;32.59
43741;BME280;29352;48.708;9.290;2022-07-04T13:21:30;97910.50;;;24.52;32.08
43741;BME280;29352;48.708;9.290;2022-07-04T13:23:55;97906.63;;;23.51;34.40
43741;BME280;29352;48.708;9.290;2022-07-04T13:26:21;97901.59;;;24.09;33.69
43741;BME280;29352;48.708;9.290;2022-07-04T13:28:47;97895.44;;;24.50;33.42
43741;BME280;29352;48.708;9.290;2022-07-04T13:31:12;97893.69;;;24.68;32.83
43741;BME280;29352;48.708;9.290;2022-07-04T13:33:39;97884.22;;;23.56;33.83
43741;BME280;29352;48.708;9.290;2022-07-04T13:36:05;97888.72;;;23.67;34.47
43741;BME280;29352;48.708;9.290;2022-07-04T13:38:31;97892.63;;;24.76;33.00
43741;BME280;29352;48.708;9.290;2022-07-04T13:40:57;97891.41;;;23.87;33.42
43741;BME280;29352;48.708;9.290;2022-07-04T13:43:24;97897.91;;;23.49;33.27
43741;BME280;29352;48.708;9.290;2022-07-04T13:45:50;97902.13;;;23.42;34.49
43741;BME280;29352;48.708;9.290;2022-07-04T13:48:16;97902.63;;;22.63;35.29